Time;durP1;ratioP1;P1;durP2;ratioP2;P2;SDS_P1;SDS_P2;PMS_P1;PMS_P2;Temp;Humidity;BMP_temperature;BMP_pressure;BME280_temperature;BME280_humidity;BME280_pressure;Samples;Min_cycle;Max_cycle;Signal;HPM_P1;HPM_P2
2024/01/07 02:51:22;;;;;;;26.63;17.60;;;;;;;10.81;57.95;98108.13;6888845;28;20214;-84
2024/01/07 02:59:55;;;;;;;27.83;18.50;;;;;;;10.32;58.57;98077.72;6907944;28;20260;-84
2024/01/07 03:07:38;;;;;;;26.53;18.33;;;;;;;10.26;59.08;98098.31;6860322;28;20244;-85
2024/01/07 03:11:05;;;;;;;26.67;17.30;;;;;;;10.76;58.91;98169.19;6910573;28;20322;-86
2024/01/07 03:14:27;;;;;;;24.80;16.63;;;;;;;10.74;58.89;98147.03;6910717;28;20271;-84
2024/01/07 03:17:55;;;;;;;22.83;15.87;;;;;;;10.83;58.58;98160.00;6909497;28;20227;-85
2024/01/07 03:25:36;;;;;;;21.30;14.50;;;;;;;9.86;58.99;98104.19;6903735;28;20212;-86
2024/01/07 03:28:59;;;;;;;24.17;17.23;;;;;;;10.61;58.87;98172.22;6885985;28;20228;-85
2024/01/07 03:32:22;;;;;;;23.33;16.83;;;;;;;10.47;58.91;98143.75;6909505;28;20267;-84
2024/01/07 03:53:17;;;;;;;17.90;13.57;;;;;;;10.34;58.98;98178.03;6725295;29;20201;-86
2024/01/07 03:56:46;;;;;;;16.70;12.90;;;;;;;10.52;57.71;98180.81;6745936;29;20231;-85
2024/01/07 04:00:09;;;;;;;16.03;12.33;;;;;;;10.68;57.75;98185.66;6778589;29;20239;-85
2024/01/07 04:03:31;;;;;;;17.83;12.90;;;;;;;10.15;56.90;98100.91;6773863;29;20212;-84
2024/01/07 04:06:52;;;;;;;14.50;12.27;;;;;;;10.46;57.37;98192.47;6772905;29;20228;-85
2024/01/07 04:10:20;;;;;;;15.30;11.37;;;;;;;10.69;56.56;98200.78;6775625;29;20216;-86
2024/01/07 04:17:32;;;;;;;14.93;11.47;;;;;;;10.27;57.15;98188.84;6785181;29;20360;-87
2024/01/07 04:25:45;;;;;;;16.60;12.50;;;;;;;10.16;56.96;98137.56;6853866;28;20291;-84
2024/01/07 04:29:07;;;;;;;13.37;11.70;;;;;;;9.74;57.70;98149.81;6934230;28;20206;-84
2024/01/07 04:32:28;;;;;;;16.20;12.93;;;;;;;10.13;57.66;98181.91;6942788;28;20207;-86
2024/01/07 04:35:50;;;;;;;17.47;12.23;;;;;;;10.35;57.22;98172.44;6963290;28;20285;-85
2024/01/07 04:39:11;;;;;;;15.43;11.77;;;;;;;10.05;57.95;98227.13;6973428;28;20678;-84
2024/01/07 04:42:34;;;;;;;16.10;11.90;;;;;;;9.98;57.80;98202.09;6991075;28;20225;-84
2024/01/07 04:45:56;;;;;;;13.83;11.20;;;;;;;10.06;57.06;98224.22;6991267;28;20221;-85
2024/01/07 04:49:17;;;;;;;13.87;12.10;;;;;;;10.28;57.68;98230.91;6992755;28;20210;-84
2024/01/07 04:52:39;;;;;;;12.97;11.43;;;;;;;10.26;57.33;98194.44;6992818;28;20234;-84
2024/01/07 04:56:01;;;;;;;16.63;11.97;;;;;;;9.89;57.22;98144.97;6991371;28;20323;-84
2024/01/07 04:59:23;;;;;;;14.87;12.23;;;;;;;9.29;57.81;98098.91;6990625;28;20260;-86
2024/01/07 05:02:45;;;;;;;13.17;11.60;;;;;;;10.38;57.21;98214.25;6983233;28;20248;-84
2024/01/07 05:06:09;;;;;;;14.27;12.23;;;;;;;9.91;57.68;98199.41;6991381;28;20326;-85
2024/01/07 05:09:30;;;;;;;15.87;12.10;;;;;;;9.87;58.00;98173.94;6991636;28;20276;-85
2024/01/07 05:12:52;;;;;;;15.53;12.13;;;;;;;9.96;57.80;98218.44;6992471;28;20651;-84
2024/01/07 05:16:20;;;;;;;17.30;12.10;;;;;;;10.04;57.93;98185.91;6987935;28;20281;-84
2024/01/07 05:19:42;;;;;;;15.47;12.50;;;;;;;10.24;57.98;98228.88;6982758;28;20737;-84
2024/01/07 05:23:04;;;;;;;16.23;13.40;;;;;;;10.00;57.77;98195.44;6991999;28;20206;-86
2024/01/07 05:26:25;;;;;;;17.03;12.93;;;;;;;9.99;57.80;98195.66;6991669;28;20291;-85
2024/01/07 05:29:47;;;;;;;16.07;12.67;;;;;;;9.94;58.16;98236.69;6992498;28;20230;-85
2024/01/07 05:33:10;;;;;;;14.97;12.80;;;;;;;10.26;58.23;98265.34;6989704;28;20199;-84
2024/01/07 05:36:31;;;;;;;16.80;13.03;;;;;;;9.85;57.52;98194.88;6988288;28;20240;-85
2024/01/07 05:39:53;;;;;;;14.47;12.77;;;;;;;10.18;57.61;98233.28;6990187;28;20248;-85
2024/01/07 05:43:14;;;;;;;18.73;13.63;;;;;;;10.35;58.25;98258.66;6990917;28;20247;-85
2024/01/07 05:46:39;;;;;;;14.63;11.87;;;;;;;9.80;58.40;98250.44;6990389;28;20251;-84
2024/01/07 05:50:02;;;;;;;15.03;12.53;;;;;;;9.41;59.00;98250.56;6989079;28;20205;-84
2024/01/07 05:53:24;;;;;;;14.53;12.33;;;;;;;10.06;58.55;98259.25;6989620;28;20210;-86
2024/01/07 05:56:45;;;;;;;18.17;12.87;;;;;;;9.67;58.06;98192.09;6989999;28;20325;-85
2024/01/07 06:00:10;;;;;;;14.90;13.07;;;;;;;10.17;57.83;98261.22;6990866;28;20206;-84
2024/01/07 06:03:32;;;;;;;15.13;12.93;;;;;;;10.01;58.18;98218.63;6990721;28;20289;-84
2024/01/07 06:06:55;;;;;;;15.10;12.13;;;;;;;10.28;58.15;98284.00;6989651;28;20249;-85
2024/01/07 06:10:16;;;;;;;14.40;12.77;;;;;;;10.24;58.07;98275.50;6987853;28;20218;-85
2024/01/07 06:13:38;;;;;;;14.33;12.70;;;;;;;9.96;58.03;98234.59;6985465;28;20207;-86
2024/01/07 06:17:00;;;;;;;15.90;13.13;;;;;;;10.09;58.32;98277.66;6988396;28;20603;-84
2024/01/07 06:20:21;;;;;;;15.03;12.80;;;;;;;10.35;58.25;98274.84;6991880;28;20280;-84
2024/01/07 06:23:44;;;;;;;14.17;12.77;;;;;;;10.52;58.08;98281.34;6990714;28;20252;-84
2024/01/07 06:27:06;;;;;;;13.73;12.33;;;;;;;10.34;57.87;98269.66;6989885;28;20226;-85
2024/01/07 06:30:27;;;;;;;13.07;11.67;;;;;;;9.82;57.96;98286.03;6988161;28;20267;-84
2024/01/07 06:33:49;;;;;;;13.37;11.77;;;;;;;10.10;57.33;98289.25;6989333;28;20304;-84
2024/01/07 06:37:10;;;;;;;15.30;12.33;;;;;;;10.27;57.06;98302.00;6987974;28;20779;-84
2024/01/07 06:40:33;;;;;;;14.57;13.07;;;;;;;10.46;57.24;98300.25;6989158;28;20214;-84
2024/01/07 06:43:56;;;;;;;15.80;13.47;;;;;;;10.30;57.31;98292.66;6989355;28;20204;-85
2024/01/07 06:47:18;;;;;;;16.50;13.53;;;;;;;10.28;56.49;98300.16;6989210;28;20225;-84
2024/01/07 06:50:39;;;;;;;16.03;13.30;;;;;;;10.27;56.47;98277.75;6978122;28;20200;-84
2024/01/07 06:54:01;;;;;;;16.00;13.87;;;;;;;10.20;57.08;98278.84;6982176;28;20221;-85
2024/01/07 06:57:24;;;;;;;15.13;13.43;;;;;;;10.35;56.43;98315.25;6989728;28;20640;-86
2024/01/07 07:00:45;;;;;;;17.20;14.40;;;;;;;10.07;56.81;98266.28;6989585;28;20226;-85
2024/01/07 07:04:07;;;;;;;14.67;13.10;;;;;;;9.94;56.47;98311.25;6989408;28;20227;-85
2024/01/07 07:07:28;;;;;;;19.50;13.60;;;;;;;10.02;56.40;98308.31;6989378;28;20319;-87
2024/01/07 07:10:50;;;;;;;14.20;12.13;;;;;;;10.28;56.06;98325.22;6986013;28;20267;-85
2024/01/07 07:14:13;;;;;;;15.67;11.80;;;;;;;9.96;55.68;98338.78;6988741;28;20340;-85
2024/01/07 07:17:34;;;;;;;13.07;11.67;;;;;;;8.90;57.20;98254.97;6988275;28;20232;-84
2024/01/07 07:20:56;;;;;;;12.40;11.13;;;;;;;9.92;56.39;98354.53;6989091;28;20209;-84
2024/01/07 07:24:17;;;;;;;16.07;13.03;;;;;;;9.73;55.80;98290.81;6989717;28;20257;-85
2024/01/07 07:27:39;;;;;;;14.63;12.10;;;;;;;9.01;56.85;98332.31;6984893;28;20294;-84
2024/01/07 07:31:02;;;;;;;13.67;12.03;;;;;;;9.82;56.54;98348.78;6982061;28;20217;-85
2024/01/07 07:34:23;;;;;;;13.90;11.00;;;;;;;9.78;56.20;98355.63;6989261;28;20262;-87
2024/01/07 07:37:45;;;;;;;15.77;11.90;;;;;;;9.67;56.04;98383.19;6988254;28;20257;-84
2024/01/07 07:41:07;;;;;;;14.87;11.27;;;;;;;8.17;57.74;98281.94;6989908;28;20218;-84
2024/01/07 07:44:29;;;;;;;12.43;11.13;;;;;;;9.21;56.72;98392.34;6987155;28;20200;-85
2024/01/07 07:47:52;;;;;;;10.40;9.37;;;;;;;8.68;57.29;98384.38;6982126;28;20275;-86
2024/01/07 07:51:36;;;;;;;10.17;9.03;;;;;;;7.66;57.10;98331.69;6988520;28;20205;-87
2024/01/07 07:54:58;;;;;;;9.43;8.47;;;;;;;8.10;56.84;98407.28;6969652;28;20252;-87
2024/01/07 07:58:20;;;;;;;9.37;8.37;;;;;;;8.52;55.00;98366.78;6979927;28;20228;-88
2024/01/07 08:01:42;;;;;;;10.50;8.57;;;;;;;9.22;54.37;98407.44;6969158;28;20368;-87
2024/01/07 08:05:05;;;;;;;10.20;8.13;;;;;;;9.25;52.92;98390.88;6984950;28;20251;-87
2024/01/07 08:08:27;;;;;;;8.43;6.87;;;;;;;9.08;51.98;98368.94;6986022;28;20228;-87
2024/01/07 08:11:48;;;;;;;11.87;8.40;;;;;;;9.17;53.54;98421.47;6988668;28;20214;-87
2024/01/07 08:15:10;;;;;;;9.13;7.37;;;;;;;9.61;52.09;98427.09;6987361;28;20228;-87
2024/01/07 08:18:32;;;;;;;7.67;6.87;;;;;;;8.20;54.60;98423.88;6987620;28;20229;-87
2024/01/07 08:21:58;;;;;;;9.67;7.83;;;;;;;9.10;53.35;98415.25;6977656;28;20227;-87
2024/01/07 08:25:20;;;;;;;8.47;7.47;;;;;;;8.68;52.64;98360.19;6975200;28;20202;-87
2024/01/07 08:28:41;;;;;;;8.87;6.83;;;;;;;9.23;51.81;98434.13;6979436;28;20235;-88
2024/01/07 08:32:03;;;;;;;8.07;6.77;;;;;;;9.04;52.49;98404.53;6980569;28;20214;-88
2024/01/07 08:35:24;;;;;;;8.80;7.70;;;;;;;9.16;52.23;98427.88;6967300;28;20226;-88
2024/01/07 08:38:50;;;;;;;8.13;7.00;;;;;;;9.31;51.77;98438.47;6978707;28;20349;-87
2024/01/07 08:42:11;;;;;;;8.23;7.07;;;;;;;9.20;52.26;98447.13;6972691;28;20206;-87
2024/01/07 08:45:33;;;;;;;7.07;6.33;;;;;;;9.32;51.22;98449.03;6961722;28;20199;-88
2024/01/07 08:48:54;;;;;;;8.87;7.07;;;;;;;8.69;53.14;98447.84;6966713;28;20743;-88
2024/01/07 08:52:16;;;;;;;9.83;7.23;;;;;;;9.04;53.00;98434.09;6975076;28;20207;-87
2024/01/07 08:55:39;;;;;;;8.53;7.33;;;;;;;9.41;51.47;98420.06;6982928;28;20219;-88
2024/01/07 08:59:00;;;;;;;7.47;6.67;;;;;;;9.16;52.16;98457.47;6971340;28;20315;-88
2024/01/07 09:02:22;;;;;;;9.37;6.97;;;;;;;9.05;51.54;98398.09;6975244;28;20267;-87
2024/01/07 09:05:43;;;;;;;8.43;7.63;;;;;;;9.07;51.37;98413.00;6975885;28;20730;-86
2024/01/07 09:09:06;;;;;;;7.40;6.63;;;;;;;8.76;52.07;98478.25;6971096;28;20305;-87
2024/01/07 09:12:29;;;;;;;7.10;6.40;;;;;;;8.34;52.05;98498.13;6967393;28;20216;-90
2024/01/07 09:15:54;;;;;;;9.07;6.00;;;;;;;8.02;53.57;98497.91;6982419;28;20223;-85
2024/01/07 09:19:16;;;;;;;6.73;6.03;;;;;;;8.83;51.18;98495.25;6980578;28;20208;-87
2024/01/07 09:26:15;;;;;;;7.27;6.53;;;;;;;9.09;50.78;98498.84;6968813;28;20291;-91
2024/01/07 09:29:38;;;;;;;7.57;6.70;;;;;;;9.10;50.48;98508.56;6988348;28;20208;-90
2024/01/07 09:32:59;;;;;;;8.20;7.10;;;;;;;9.15;49.53;98495.34;6982942;28;20338;-90
2024/01/07 09:36:21;;;;;;;7.43;6.60;;;;;;;8.87;51.75;98518.84;6988686;28;20242;-91
2024/01/07 09:39:42;;;;;;;7.93;6.80;;;;;;;8.82;51.30;98464.84;7011984;28;20246;-91
2024/01/07 09:43:12;;;;;;;7.97;6.70;;;;;;;8.77;50.93;98518.38;6986097;28;20204;-92
2024/01/07 09:47:11;;;;;;;8.53;7.37;;;;;;;8.41;51.81;98522.31;6991318;28;20221;-90
2024/01/07 09:50:33;;;;;;;7.23;6.40;;;;;;;8.18;50.63;98436.66;6991134;28;20220;-88
